sensor_id;sensor_type;location;lat;lon;timestamp;P1;durP1;ratioP1;P2;durP2;ratioP2
64669;SDS011;51080;51.690;5.174;2022-09-09T00:03:44;10.90;;;4.40;;
64669;SDS011;51080;51.690;5.174;2022-09-09T00:10:09;7.90;;;4.30;;
64669;SDS011;51080;51.690;5.174;2022-09-09T00:16:11;7.30;;;4.30;;
64669;SDS011;51080;51.690;5.174;2022-09-09T00:28:08;7.50;;;4.20;;
64669;SDS011;51080;51.690;5.174;2022-09-09T00:34:05;9.90;;;4.60;;
64669;SDS011;51080;51.690;5.174;2022-09-09T00:40:08;7.80;;;4.70;;
64669;SDS011;51080;51.690;5.174;2022-09-09T00:46:32;7.70;;;4.90;;
64669;SDS011;51080;51.690;5.174;2022-09-09T00:59:25;9.50;;;5.80;;
64669;SDS011;51080;51.690;5.174;2022-09-09T01:05:23;9.50;;;6.10;;
64669;SDS011;51080;51.690;5.174;2022-09-09T01:11:20;11.00;;;6.60;;
64669;SDS011;51080;51.690;5.174;2022-09-09T01:24:04;12.10;;;6.60;;
64669;SDS011;51080;51.690;5.174;2022-09-09T01:30:07;14.20;;;7.50;;
64669;SDS011;51080;51.690;5.174;2022-09-09T01:36:08;10.70;;;6.50;;
64669;SDS011;51080;51.690;5.174;2022-09-09T01:41:56;12.00;;;6.90;;
64669;SDS011;51080;51.690;5.174;2022-09-09T01:47:39;11.30;;;7.00;;
64669;SDS011;51080;51.690;5.174;2022-09-09T01:53:32;10.10;;;6.80;;
64669;SDS011;51080;51.690;5.174;2022-09-09T01:59:19;11.50;;;6.80;;
64669;SDS011;51080;51.690;5.174;2022-09-09T02:12:02;11.20;;;7.20;;
64669;SDS011;51080;51.690;5.174;2022-09-09T02:17:54;14.30;;;6.60;;
64669;SDS011;51080;51.690;5.174;2022-09-09T02:23:42;10.30;;;6.40;;
64669;SDS011;51080;51.690;5.174;2022-09-09T02:29:31;10.70;;;6.30;;
64669;SDS011;51080;51.690;5.174;2022-09-09T02:35:22;11.70;;;6.60;;
64669;SDS011;51080;51.690;5.174;2022-09-09T02:41:07;14.00;;;7.30;;
64669;SDS011;51080;51.690;5.174;2022-09-09T02:53:15;14.30;;;6.90;;
64669;SDS011;51080;51.690;5.174;2022-09-09T02:59:02;14.40;;;6.50;;
64669;SDS011;51080;51.690;5.174;2022-09-09T03:04:56;13.20;;;6.80;;
64669;SDS011;51080;51.690;5.174;2022-09-09T03:10:40;12.30;;;6.50;;
64669;SDS011;51080;51.690;5.174;2022-09-09T03:16:24;11.70;;;6.10;;
64669;SDS011;51080;51.690;5.174;2022-09-09T03:22:09;11.20;;;5.90;;
64669;SDS011;51080;51.690;5.174;2022-09-09T03:27:54;15.30;;;6.50;;
64669;SDS011;51080;51.690;5.174;2022-09-09T03:33:39;11.30;;;5.50;;
64669;SDS011;51080;51.690;5.174;2022-09-09T03:39:53;10.00;;;4.80;;
64669;SDS011;51080;51.690;5.174;2022-09-09T03:45:36;11.80;;;5.20;;
64669;SDS011;51080;51.690;5.174;2022-09-09T03:51:20;16.60;;;5.10;;
64669;SDS011;51080;51.690;5.174;2022-09-09T03:57:04;10.40;;;5.40;;
64669;SDS011;51080;51.690;5.174;2022-09-09T04:03:18;10.60;;;5.10;;
64669;SDS011;51080;51.690;5.174;2022-09-09T04:09:02;10.30;;;5.20;;
64669;SDS011;51080;51.690;5.174;2022-09-09T04:14:46;12.90;;;5.80;;
64669;SDS011;51080;51.690;5.174;2022-09-09T04:20:30;13.20;;;5.50;;
64669;SDS011;51080;51.690;5.174;2022-09-09T04:26:13;11.70;;;5.30;;
64669;SDS011;51080;51.690;5.174;2022-09-09T04:31:57;13.10;;;5.50;;
64669;SDS011;51080;51.690;5.174;2022-09-09T04:37:40;13.90;;;6.10;;
64669;SDS011;51080;51.690;5.174;2022-09-09T04:43:24;16.20;;;6.10;;
64669;SDS011;51080;51.690;5.174;2022-09-09T04:49:08;15.20;;;6.20;;
64669;SDS011;51080;51.690;5.174;2022-09-09T04:54:52;14.80;;;6.30;;
64669;SDS011;51080;51.690;5.174;2022-09-09T05:00:37;13.30;;;6.30;;
64669;SDS011;51080;51.690;5.174;2022-09-09T05:06:21;15.90;;;6.60;;
64669;SDS011;51080;51.690;5.174;2022-09-09T05:12:06;15.40;;;6.20;;
64669;SDS011;51080;51.690;5.174;2022-09-09T05:17:51;17.60;;;7.10;;
64669;SDS011;51080;51.690;5.174;2022-09-09T05:23:34;15.90;;;6.80;;
64669;SDS011;51080;51.690;5.174;2022-09-09T05:29:18;15.40;;;6.10;;
64669;SDS011;51080;51.690;5.174;2022-09-09T05:35:32;13.40;;;6.10;;
64669;SDS011;51080;51.690;5.174;2022-09-09T05:41:16;17.20;;;6.70;;
64669;SDS011;51080;51.690;5.174;2022-09-09T05:46:59;18.10;;;7.00;;
64669;SDS011;51080;51.690;5.174;2022-09-09T05:52:43;17.50;;;7.20;;
64669;SDS011;51080;51.690;5.174;2022-09-09T05:58:26;19.60;;;6.50;;
64669;SDS011;51080;51.690;5.174;2022-09-09T06:04:10;21.40;;;6.70;;
64669;SDS011;51080;51.690;5.174;2022-09-09T06:09:54;16.70;;;6.60;;
64669;SDS011;51080;51.690;5.174;2022-09-09T06:15:39;14.60;;;6.60;;
64669;SDS011;51080;51.690;5.174;2022-09-09T06:21:24;17.60;;;6.50;;
64669;SDS011;51080;51.690;5.174;2022-09-09T06:27:40;11.00;;;5.10;;
64669;SDS011;51080;51.690;5.174;2022-09-09T06:33:24;10.60;;;5.40;;
64669;SDS011;51080;51.690;5.174;2022-09-09T06:39:09;14.10;;;5.60;;
64669;SDS011;51080;51.690;5.174;2022-09-09T06:44:51;14.70;;;5.90;;
64669;SDS011;51080;51.690;5.174;2022-09-09T06:50:35;14.70;;;5.40;;
64669;SDS011;51080;51.690;5.174;2022-09-09T06:56:21;13.10;;;5.30;;
64669;SDS011;51080;51.690;5.174;2022-09-09T07:02:45;10.70;;;4.10;;
64669;SDS011;51080;51.690;5.174;2022-09-09T07:08:30;10.90;;;3.80;;
64669;SDS011;51080;51.690;5.174;2022-09-09T07:14:14;16.20;;;4.60;;
64669;SDS011;51080;51.690;5.174;2022-09-09T07:20:28;15.60;;;4.40;;
64669;SDS011;51080;51.690;5.174;2022-09-09T07:26:16;19.50;;;5.30;;
64669;SDS011;51080;51.690;5.174;2022-09-09T07:32:31;12.70;;;4.20;;
64669;SDS011;51080;51.690;5.174;2022-09-09T07:38:15;13.70;;;4.50;;
64669;SDS011;51080;51.690;5.174;2022-09-09T07:44:29;12.10;;;3.80;;
64669;SDS011;51080;51.690;5.174;2022-09-09T07:50:13;9.40;;;3.60;;
64669;SDS011;51080;51.690;5.174;2022-09-09T07:56:04;13.60;;;4.20;;
64669;SDS011;51080;51.690;5.174;2022-09-09T08:01:49;10.80;;;3.70;;
64669;SDS011;51080;51.690;5.174;2022-09-09T08:07:34;11.70;;;3.30;;
64669;SDS011;51080;51.690;5.174;2022-09-09T08:13:48;8.70;;;2.70;;
64669;SDS011;51080;51.690;5.174;2022-09-09T08:19:34;13.40;;;3.10;;
64669;SDS011;51080;51.690;5.174;2022-09-09T08:25:18;12.50;;;3.10;;
64669;SDS011;51080;51.690;5.174;2022-09-09T08:31:05;11.10;;;3.10;;
64669;SDS011;51080;51.690;5.174;2022-09-09T08:36:51;14.00;;;3.60;;
64669;SDS011;51080;51.690;5.174;2022-09-09T08:42:36;6.90;;;2.90;;
64669;SDS011;51080;51.690;5.174;2022-09-09T08:48:42;12.10;;;3.50;;
64669;SDS011;51080;51.690;5.174;2022-09-09T08:54:43;16.10;;;4.20;;
64669;SDS011;51080;51.690;5.174;2022-09-09T09:00:30;11.40;;;2.80;;
64669;SDS011;51080;51.690;5.174;2022-09-09T09:12:42;12.00;;;2.60;;
64669;SDS011;51080;51.690;5.174;2022-09-09T09:18:28;9.20;;;2.30;;
64669;SDS011;51080;51.690;5.174;2022-09-09T09:24:22;11.40;;;2.60;;
64669;SDS011;51080;51.690;5.174;2022-09-09T09:30:21;10.00;;;2.80;;
64669;SDS011;51080;51.690;5.174;2022-09-09T09:36:02;11.50;;;2.80;;
64669;SDS011;51080;51.690;5.174;2022-09-09T09:41:46;8.90;;;2.40;;
64669;SDS011;51080;51.690;5.174;2022-09-09T09:47:29;8.50;;;2.80;;
64669;SDS011;51080;51.690;5.174;2022-09-09T09:53:18;9.10;;;3.70;;
64669;SDS011;51080;51.690;5.174;2022-09-09T09:59:36;12.60;;;3.30;;
64669;SDS011;51080;51.690;5.174;2022-09-09T10:05:23;9.60;;;3.50;;
64669;SDS011;51080;51.690;5.174;2022-09-09T10:11:17;12.60;;;4.30;;
64669;SDS011;51080;51.690;5.174;2022-09-09T10:17:09;11.90;;;4.10;;
64669;SDS011;51080;51.690;5.174;2022-09-09T10:35:56;9.10;;;3.10;;
64669;SDS011;51080;51.690;5.174;2022-09-09T10:42:05;12.50;;;3.60;;
64669;SDS011;51080;51.690;5.174;2022-09-09T11:00:45;11.60;;;3.40;;
64669;SDS011;51080;51.690;5.174;2022-09-09T11:07:05;7.60;;;3.50;;
64669;SDS011;51080;51.690;5.174;2022-09-09T11:12:55;13.30;;;3.60;;
64669;SDS011;51080;51.690;5.174;2022-09-09T11:18:42;9.30;;;3.50;;
64669;SDS011;51080;51.690;5.174;2022-09-09T11:49:00;9.80;;;4.40;;
64669;SDS011;51080;51.690;5.174;2022-09-09T11:54:47;8.60;;;3.60;;
64669;SDS011;51080;51.690;5.174;2022-09-09T12:00:36;11.70;;;4.10;;
64669;SDS011;51080;51.690;5.174;2022-09-09T12:06:33;10.30;;;3.70;;
64669;SDS011;51080;51.690;5.174;2022-09-09T12:12:39;10.90;;;3.70;;
64669;SDS011;51080;51.690;5.174;2022-09-09T12:19:02;11.60;;;3.60;;
64669;SDS011;51080;51.690;5.174;2022-09-09T12:36:52;8.20;;;3.00;;
64669;SDS011;51080;51.690;5.174;2022-09-09T12:42:41;10.60;;;3.70;;
64669;SDS011;51080;51.690;5.174;2022-09-09T12:48:31;7.40;;;2.80;;
64669;SDS011;51080;51.690;5.174;2022-09-09T12:54:25;7.90;;;2.60;;
64669;SDS011;51080;51.690;5.174;2022-09-09T13:00:16;7.70;;;2.40;;
64669;SDS011;51080;51.690;5.174;2022-09-09T13:06:12;8.40;;;2.50;;
64669;SDS011;51080;51.690;5.174;2022-09-09T13:12:01;7.40;;;2.60;;
64669;SDS011;51080;51.690;5.174;2022-09-09T13:17:50;6.80;;;2.20;;
64669;SDS011;51080;51.690;5.174;2022-09-09T13:24:07;6.00;;;2.40;;
64669;SDS011;51080;51.690;5.174;2022-09-09T13:36:17;6.30;;;2.10;;
64669;SDS011;51080;51.690;5.174;2022-09-09T13:42:26;8.10;;;2.20;;
64669;SDS011;51080;51.690;5.174;2022-09-09T13:48:17;7.60;;;2.20;;
64669;SDS011;51080;51.690;5.174;2022-09-09T13:54:02;5.90;;;1.80;;
64669;SDS011;51080;51.690;5.174;2022-09-09T13:59:48;5.50;;;1.70;;
64669;SDS011;51080;51.690;5.174;2022-09-09T14:05:33;3.50;;;1.60;;
64669;SDS011;51080;51.690;5.174;2022-09-09T14:11:18;3.80;;;1.40;;
64669;SDS011;51080;51.690;5.174;2022-09-09T14:17:03;5.20;;;1.70;;
64669;SDS011;51080;51.690;5.174;2022-09-09T14:22:48;6.60;;;1.90;;
64669;SDS011;51080;51.690;5.174;2022-09-09T14:28:32;7.10;;;1.80;;
64669;SDS011;51080;51.690;5.174;2022-09-09T14:34:19;6.90;;;1.50;;
64669;SDS011;51080;51.690;5.174;2022-09-09T14:40:03;3.40;;;1.40;;
64669;SDS011;51080;51.690;5.174;2022-09-09T14:45:51;4.60;;;1.50;;
64669;SDS011;51080;51.690;5.174;2022-09-09T14:51:36;2.90;;;1.20;;
64669;SDS011;51080;51.690;5.174;2022-09-09T14:57:21;3.40;;;1.20;;
64669;SDS011;51080;51.690;5.174;2022-09-09T15:03:05;5.30;;;1.90;;
64669;SDS011;51080;51.690;5.174;2022-09-09T15:09:20;4.10;;;1.50;;
64669;SDS011;51080;51.690;5.174;2022-09-09T15:15:05;3.80;;;1.70;;
64669;SDS011;51080;51.690;5.174;2022-09-09T15:20:59;3.60;;;2.00;;
64669;SDS011;51080;51.690;5.174;2022-09-09T15:26:47;5.10;;;2.20;;
64669;SDS011;51080;51.690;5.174;2022-09-09T15:32:38;4.60;;;2.30;;
64669;SDS011;51080;51.690;5.174;2022-09-09T15:38:25;6.90;;;2.20;;
64669;SDS011;51080;51.690;5.174;2022-09-09T15:44:10;3.70;;;1.80;;
64669;SDS011;51080;51.690;5.174;2022-09-09T15:49:56;5.60;;;2.00;;
64669;SDS011;51080;51.690;5.174;2022-09-09T15:55:40;4.00;;;1.50;;
64669;SDS011;51080;51.690;5.174;2022-09-09T16:01:25;4.50;;;1.70;;
64669;SDS011;51080;51.690;5.174;2022-09-09T16:07:10;3.90;;;1.20;;
64669;SDS011;51080;51.690;5.174;2022-09-09T16:12:55;2.50;;;1.30;;
64669;SDS011;51080;51.690;5.174;2022-09-09T16:18:40;2.30;;;1.30;;
64669;SDS011;51080;51.690;5.174;2022-09-09T16:24:29;4.10;;;1.40;;
64669;SDS011;51080;51.690;5.174;2022-09-09T16:30:14;3.80;;;1.50;;
64669;SDS011;51080;51.690;5.174;2022-09-09T16:36:04;4.80;;;1.60;;
64669;SDS011;51080;51.690;5.174;2022-09-09T16:41:53;6.60;;;2.30;;
64669;SDS011;51080;51.690;5.174;2022-09-09T16:47:36;3.70;;;2.30;;
64669;SDS011;51080;51.690;5.174;2022-09-09T16:53:20;4.30;;;2.50;;
64669;SDS011;51080;51.690;5.174;2022-09-09T16:59:06;6.80;;;2.70;;
64669;SDS011;51080;51.690;5.174;2022-09-09T17:04:52;5.20;;;2.70;;
64669;SDS011;51080;51.690;5.174;2022-09-09T17:10:40;5.80;;;2.70;;
64669;SDS011;51080;51.690;5.174;2022-09-09T17:16:27;6.50;;;3.10;;
64669;SDS011;51080;51.690;5.174;2022-09-09T17:22:13;6.80;;;2.60;;
64669;SDS011;51080;51.690;5.174;2022-09-09T17:27:58;5.60;;;2.50;;
64669;SDS011;51080;51.690;5.174;2022-09-09T17:33:45;5.70;;;2.90;;
64669;SDS011;51080;51.690;5.174;2022-09-09T17:39:31;8.50;;;2.40;;
64669;SDS011;51080;51.690;5.174;2022-09-09T17:45:15;5.60;;;2.70;;
64669;SDS011;51080;51.690;5.174;2022-09-09T17:51:00;6.30;;;2.70;;
64669;SDS011;51080;51.690;5.174;2022-09-09T17:56:46;8.00;;;3.00;;
64669;SDS011;51080;51.690;5.174;2022-09-09T18:02:31;6.50;;;3.30;;
64669;SDS011;51080;51.690;5.174;2022-09-09T18:08:16;7.80;;;3.30;;
64669;SDS011;51080;51.690;5.174;2022-09-09T18:14:02;6.60;;;3.20;;
64669;SDS011;51080;51.690;5.174;2022-09-09T18:19:47;5.40;;;3.40;;
64669;SDS011;51080;51.690;5.174;2022-09-09T18:25:38;9.40;;;3.70;;
64669;SDS011;51080;51.690;5.174;2022-09-09T18:31:24;6.00;;;3.70;;
64669;SDS011;51080;51.690;5.174;2022-09-09T18:37:40;6.10;;;3.50;;
64669;SDS011;51080;51.690;5.174;2022-09-09T18:43:24;11.50;;;5.00;;
64669;SDS011;51080;51.690;5.174;2022-09-09T18:49:09;7.30;;;4.00;;
64669;SDS011;51080;51.690;5.174;2022-09-09T18:54:54;6.30;;;3.70;;
64669;SDS011;51080;51.690;5.174;2022-09-09T19:00:38;18.90;;;5.50;;
64669;SDS011;51080;51.690;5.174;2022-09-09T19:06:51;18.30;;;5.70;;
64669;SDS011;51080;51.690;5.174;2022-09-09T19:12:36;14.10;;;5.30;;
64669;SDS011;51080;51.690;5.174;2022-09-09T19:18:50;10.70;;;5.10;;
64669;SDS011;51080;51.690;5.174;2022-09-09T19:24:34;9.60;;;5.70;;
64669;SDS011;51080;51.690;5.174;2022-09-09T19:30:18;11.60;;;6.30;;
64669;SDS011;51080;51.690;5.174;2022-09-09T19:36:04;11.90;;;7.20;;
64669;SDS011;51080;51.690;5.174;2022-09-09T19:41:50;11.60;;;7.40;;
64669;SDS011;51080;51.690;5.174;2022-09-09T19:47:32;12.10;;;7.10;;
64669;SDS011;51080;51.690;5.174;2022-09-09T19:53:47;11.50;;;7.80;;
64669;SDS011;51080;51.690;5.174;2022-09-09T20:00:02;9.90;;;6.90;;
64669;SDS011;51080;51.690;5.174;2022-09-09T20:05:47;9.50;;;7.10;;
64669;SDS011;51080;51.690;5.174;2022-09-09T20:12:01;11.20;;;7.30;;
64669;SDS011;51080;51.690;5.174;2022-09-09T20:17:45;11.50;;;8.20;;
64669;SDS011;51080;51.690;5.174;2022-09-09T20:23:28;10.40;;;8.30;;
64669;SDS011;51080;51.690;5.174;2022-09-09T20:29:14;14.80;;;9.20;;
64669;SDS011;51080;51.690;5.174;2022-09-09T20:35:30;12.40;;;8.90;;
64669;SDS011;51080;51.690;5.174;2022-09-09T20:41:44;12.40;;;8.80;;
64669;SDS011;51080;51.690;5.174;2022-09-09T20:47:27;14.90;;;10.30;;
64669;SDS011;51080;51.690;5.174;2022-09-09T20:53:11;16.50;;;11.50;;
64669;SDS011;51080;51.690;5.174;2022-09-09T20:58:55;15.10;;;11.20;;
64669;SDS011;51080;51.690;5.174;2022-09-09T21:04:40;13.60;;;10.40;;
64669;SDS011;51080;51.690;5.174;2022-09-09T21:10:25;16.70;;;9.90;;
64669;SDS011;51080;51.690;5.174;2022-09-09T21:16:14;15.00;;;8.60;;
64669;SDS011;51080;51.690;5.174;2022-09-09T21:22:01;11.20;;;6.70;;
64669;SDS011;51080;51.690;5.174;2022-09-09T21:27:45;11.50;;;6.60;;
64669;SDS011;51080;51.690;5.174;2022-09-09T21:33:59;10.50;;;5.50;;
64669;SDS011;51080;51.690;5.174;2022-09-09T21:39:43;11.30;;;6.00;;
64669;SDS011;51080;51.690;5.174;2022-09-09T21:45:25;12.70;;;6.20;;
64669;SDS011;51080;51.690;5.174;2022-09-09T21:51:13;11.60;;;5.80;;
64669;SDS011;51080;51.690;5.174;2022-09-09T21:56:58;11.00;;;5.30;;
64669;SDS011;51080;51.690;5.174;2022-09-09T22:02:43;7.30;;;4.00;;
64669;SDS011;51080;51.690;5.174;2022-09-09T22:08:26;10.40;;;4.50;;
64669;SDS011;51080;51.690;5.174;2022-09-09T22:14:11;9.30;;;4.10;;
64669;SDS011;51080;51.690;5.174;2022-09-09T22:19:55;12.40;;;4.00;;
64669;SDS011;51080;51.690;5.174;2022-09-09T22:25:39;12.50;;;3.80;;
64669;SDS011;51080;51.690;5.174;2022-09-09T22:31:24;9.70;;;3.90;;
64669;SDS011;51080;51.690;5.174;2022-09-09T22:37:38;10.80;;;3.30;;
64669;SDS011;51080;51.690;5.174;2022-09-09T22:43:52;7.90;;;3.00;;
64669;SDS011;51080;51.690;5.174;2022-09-09T22:49:36;11.50;;;3.60;;
64669;SDS011;51080;51.690;5.174;2022-09-09T22:55:19;11.30;;;3.50;;
64669;SDS011;51080;51.690;5.174;2022-09-09T23:01:08;13.00;;;3.60;;
64669;SDS011;51080;51.690;5.174;2022-09-09T23:06:53;9.00;;;3.50;;
64669;SDS011;51080;51.690;5.174;2022-09-09T23:12:38;11.20;;;4.10;;
64669;SDS011;51080;51.690;5.174;2022-09-09T23:18:22;10.10;;;4.70;;
64669;SDS011;51080;51.690;5.174;2022-09-09T23:24:06;13.20;;;4.30;;
64669;SDS011;51080;51.690;5.174;2022-09-09T23:29:52;10.70;;;4.20;;
64669;SDS011;51080;51.690;5.174;2022-09-09T23:35:37;14.20;;;5.50;;
64669;SDS011;51080;51.690;5.174;2022-09-09T23:41:20;12.20;;;5.20;;
64669;SDS011;51080;51.690;5.174;2022-09-09T23:47:03;12.00;;;5.50;;
64669;SDS011;51080;51.690;5.174;2022-09-09T23:52:48;12.20;;;5.30;;
64669;SDS011;51080;51.690;5.174;2022-09-09T23:58:32;12.30;;;5.90;;
